Home > Products > Valid Products > TAF

000
FTUS43 KDLH 060639 AAA
TAFINL
TAF AMD
KINL 060639Z 0607/0706 00000KT 1SM BR OVC050
      TEMPO 0607/0610 1/4SM FG
     FM061300 34010KT P6SM BKN250
     FM061900 34012G22KT P6SM BKN250
     FM070100 33006KT P6SM SKC=



000
FTUS43 KDLH 060536
TAFDLH
TAF
KDLH 060536Z 0606/0706 33006KT 3SM BR BKN025
      TEMPO 0606/0610 1/2SM FG BKN005
     FM061300 33010KT P6SM VCSH OVC015
     FM061700 36012G22KT P6SM BKN100
     FM062100 35009KT P6SM BKN250=



000
FTUS43 KDLH 060536
TAFBRD
TAF
KBRD 060536Z 0606/0706 35010KT P6SM VCSH BKN040
      TEMPO 0606/0610 3SM BR BKN025
     FM061400 35010KT P6SM SCT030 OVC070
     FM061700 34012G22KT P6SM SCT030
     FM070100 34010KT P6SM SKC=



000
FTUS43 KDLH 060536
TAFHYR
TAF
KHYR 060536Z 0606/0706 19010KT 4SM -TSRA OVC040CB
      TEMPO 0606/0608 1SM +TSRA OVC015CB
     FM060800 18004KT 4SM -SHRA BR OVC035
      TEMPO 0608/0612 2SM BR OVC010
     FM061400 VRB03KT 5SM BR OVC010
     FM062200 33005KT P6SM BKN015
     FM070200 01005KT P6SM SKC=



000
FTUS43 KDLH 060536
TAFINL
TAF
KINL 060536Z 0606/0706 31005KT P6SM OVC050
      TEMPO 0606/0610 4SM BR BKN050
     FM061300 34010KT P6SM BKN250
     FM061900 34012G22KT P6SM BKN250
     FM070100 33006KT P6SM SKC=



000
FTUS43 KDLH 060437 AAA
TAFHYR
TAF AMD
KHYR 060437Z 0605/0624 19011KT P6SM FEW100
     FM060600 17006KT 4SM -TSRA OVC025CB
      TEMPO 0606/0609 1SM TSRA OVC015CB
     FM061000 22005KT 3SM BR VCSH OVC010
     FM061400 VRB03KT 2SM SHRA BR OVC010=



000
FTUS43 KDLH 060342 AAB
TAFDLH
TAF AMD
KDLH 060342Z 0604/0624 33008KT 3SM TSRA OVC025CB
      TEMPO 0604/0605 1SM +TSRA OVC030CB
     FM060500 VRB04KT 2SM SHRA BR OVC020
      TEMPO 0605/0608 2SM -TSRA OVC010CB
     FM060800 35006KT 4SM -SHRA BR OVC010
      TEMPO 0608/0612 1SM -SHRA BR OVC005
     FM061800 36010KT 2SM BR OVC007
     FM062100 35009KT P6SM BKN250=



000
FTUS43 KDLH 060342 AAB
TAFDLH
TAF AMD
KDLH 060342Z 0604/0624 33008KT 3SM TSRA OVC025CB
      TEMPO 0604/0605 1SM +TSRA OVC030CB
     FM060500 VRB04KT 2SM SHRA BR OVC020
      TEMPO 0605/0608 2SM -TSRA OVC010CB
     FM060800 35006KT 4SM -SHRA BR OVC010
      TEMPO 0608/0612 1SM -SHRA BR OVC005
     FM061800 36010KT 2SM BR OVC007
     FM062100 35009KT P6SM BKN250=



000
FTUS43 KDLH 060250 AAA
TAFBRD
TAF AMD
KBRD 060250Z 0603/0624 21008KT 4SM -TSRA BKN040CB
      TEMPO 0603/0605 2SM TSRA BKN020CB
     FM060500 17010KT 3SM -RA VCTS SCT015CB OVC025
     FM060700 22009KT 3SM BR VCSH OVC025
     FM061400 35010KT P6SM SCT030 OVC070=



000
FTUS43 KDLH 060250 AAA
TAFBRD
TAF AMD
KBRD 060250Z 0603/0624 21008KT 4SM -TSRA BKN040CB
      TEMPO 0603/0605 2SM TSRA BKN020CB
     FM060500 17010KT 3SM -RA VCTS SCT015CB OVC025
     FM060700 22009KT 3SM BR VCSH OVC025
     FM061400 35010KT P6SM SCT030 OVC070=



000
FTUS43 KDLH 060247 AAA
TAFDLH
TAF AMD
KDLH 060247Z 0603/0624 20007KT P6SM -TSRA FEW035CB
     FM060400 20007KT 3SM TSRA OVC025CB
      TEMPO 0604/0605 1SM +TSRA OVC030CB
     FM060500 VRB04KT 2SM SHRA BR OVC020
      TEMPO 0605/0608 2SM -TSRA OVC010CB
     FM060800 35006KT 4SM -SHRA BR OVC010
      TEMPO 0608/0612 1SM -SHRA BR OVC005
     FM061800 36010KT 2SM BR OVC007
     FM062100 35009KT P6SM BKN250=



000
FTUS43 KDLH 060247 AAA
TAFDLH
TAF AMD
KDLH 060247Z 0603/0624 20007KT P6SM -TSRA FEW035CB
     FM060400 20007KT 3SM TSRA OVC025CB
      TEMPO 0604/0605 1SM +TSRA OVC030CB
     FM060500 VRB04KT 2SM SHRA BR OVC020
      TEMPO 0605/0608 2SM -TSRA OVC010CB
     FM060800 35006KT 4SM -SHRA BR OVC010
      TEMPO 0608/0612 1SM -SHRA BR OVC005
     FM061800 36010KT 2SM BR OVC007
     FM062100 35009KT P6SM BKN250=



000
FTUS43 KDLH 052345
TAFHYR
TAF
KHYR 052345Z 0600/0624 17011G20KT P6SM SCT070
     FM060300 17008KT P6SM VCTS SCT035 OVC050CB
     FM060800 17006KT 3SM -SHRA BR VCTS OVC025CB
      TEMPO 0608/0612 1SM RA OVC005
     FM061400 VRB03KT 2SM SHRA BR OVC010=



000
FTUS43 KDLH 052345
TAFINL
TAF
KINL 052345Z 0600/0624 29007KT P6SM VCTS FEW035 BKN050CB
     FM060200 30004KT 4SM BR VCSH OVC035
     FM060900 31005KT P6SM SCT040 SCT250
     FM061300 33008KT P6SM OVC060
     FM061900 34011G17KT P6SM OVC050
     FM062100 34012G19KT P6SM OVC100
     FM062200 34012G19KT P6SM SCT250=



000
FTUS43 KDLH 052345
TAFDLH
TAF
KDLH 052345Z 0600/0624 19015G20KT P6SM FEW035
     FM060200 21010KT 5SM -SHRA VCTS OVC050CB
      TEMPO 0602/0605 3SM TSRA OVC030CB
     FM060500 VRB04KT 2SM SHRA BR OVC020
      TEMPO 0605/0608 2SM -TSRA OVC010CB
     FM060800 35006KT 4SM -SHRA BR OVC010
      TEMPO 0608/0612 1SM -SHRA BR OVC005
     FM061800 36010KT 2SM BR OVC007
     FM062100 35009KT P6SM BKN250=



000
FTUS43 KDLH 052345
TAFBRD
TAF
KBRD 052345Z 0600/0624 18008KT P6SM VCTS FEW045CB
      TEMPO 0602/0605 4SM TSRA
     FM060500 17010KT 3SM -RA VCTS SCT015CB OVC025
     FM060700 22009KT 3SM BR VCSH OVC025
     FM061400 35010KT P6SM SCT030 OVC070=



000
FTUS43 KDLH 052146 AAD
TAFINL
TAF AMD
KINL 052146Z 0522/0618 27010G20KT P6SM VCTS FEW035 BKN050CB
     FM060300 35008KT 4SM BR VCSH OVC025
     FM060900 35004KT P6SM SCT040 OVC100
     FM061300 33007KT P6SM OVC120=



000
FTUS43 KDLH 052146 AAD
TAFINL
TAF AMD
KINL 052146Z 0522/0618 27010G20KT P6SM VCTS FEW035 BKN050CB
     FM060300 35008KT 4SM BR VCSH OVC025
     FM060900 35004KT P6SM SCT040 OVC100
     FM061300 33007KT P6SM OVC120=



000
FTUS43 KDLH 052021 AAC
TAFINL
TAF AMD
KINL 052021Z 0520/0618 23012G23KT P6SM VCTS BKN050CB
      TEMPO 0522/0524 3SM TSRA BR
     FM060000 03015KT 6SM -RA VCTS SCT050 BKN070CB
     FM060200 35008KT 4SM BR VCSH OVC025
     FM060900 35004KT P6SM SCT040 OVC100
     FM061300 33007KT P6SM OVC120=



000
FTUS43 KDLH 052019 AAA
TAFBRD
TAF AMD
KBRD 052019Z 0520/0618 18015G22KT P6SM VCTS SCT030CB BKN070
      TEMPO 0522/0601 4SM TSRA
     FM060400 17012KT 3SM -RA VCTS SCT015CB OVC025
     FM060700 22009KT 3SM BR VCSH OVC025
     FM061400 35010KT P6SM SCT030 OVC070=



000
FTUS43 KDLH 052016 AAB
TAFINL
TAF AMD
KINL 052016Z 0520/0618 21012G23KT P6SM VCTS BKN050CB
      TEMPO 0521/0524 3SM TSRA BR
     FM060000 03015KT 6SM -RA VCTS SCT050 BKN070CB
     FM060200 35008KT 4SM BR VCSH OVC025
     FM060900 35004KT P6SM SCT040 OVC100
     FM061300 33007KT P6SM OVC120=



000
FTUS43 KDLH 051939 AAB
TAFDLH
TAF AMD
KDLH 051939Z 0520/0618 18012G20KT P6SM FEW200
     FM052300 10010KT P6SM VCTS BKN050CB
     FM060200 21011KT 5SM -RA VCTS OVC025CB
     FM060500 24011KT 5SM BR VCSH OVC025
     FM061300 35006KT P6SM SCT025 BKN060=



000
FTUS43 KDLH 051938 AAA
TAFINL
TAF AMD
KINL 051938Z 0520/0618 20012G23KT P6SM VCTS BKN050CB
      TEMPO 0521/0523 3SM TSRA BR
     FM052300 03015KT 6SM -RA VCTS SCT050 BKN070CB
     FM060200 35008KT 4SM BR VCSH OVC025
     FM060900 35004KT P6SM SCT040 OVC100
     FM061300 33007KT P6SM OVC120=



000
FTUS43 KDLH 051727
TAFHYR
TAF
KHYR 051727Z 0518/0618 19012G22KT P6SM SCT150
     FM060100 18008KT P6SM VCTS SCT040 BKN070CB
     FM060300 17008KT 5SM -RA VCTS SCT035 OVC050CB
     FM060800 17006KT 3SM BR VCSH OVC025
     FM061400 24005KT 5SM BR VCSH OVC025=



000
FTUS43 KDLH 051727
TAFINL
TAF
KINL 051727Z 0518/0618 18012KT 6SM FU VCTS SCT020 BKN070CB
     FM052000 20012G23KT 5SM -TSRA BKN040CB
      TEMPO 0520/0522 VRB20G35KT 1 1/2SM +TSRA
     FM052300 03015KT 6SM -RA VCTS SCT050 BKN070CB
     FM060200 35008KT 4SM BR VCSH OVC025
     FM060900 35004KT P6SM SCT040 OVC100
     FM061300 33007KT P6SM OVC120=



000
FTUS43 KDLH 051727
TAFBRD
TAF
KBRD 051727Z 0518/0618 21009G20KT P6SM BKN150
     FM052100 18015G27KT P6SM VCTS SCT050CB BKN070
     FM060400 17012KT 3SM -RA VCTS SCT015 OVC025CB
     FM060700 22009KT 3SM BR VCSH OVC025
     FM061400 35010KT P6SM SCT030 OVC070=



000
FTUS43 KDLH 051727
TAFHYR
TAF
KHYR 051727Z 0518/0618 19012G22KT P6SM SCT150
     FM060100 18008KT P6SM VCTS SCT040 BKN070CB
     FM060300 17008KT 5SM -RA VCTS SCT035 OVC050CB
     FM060800 17006KT 3SM BR VCSH OVC025
     FM061400 24005KT 5SM BR VCSH OVC025=



000
FTUS43 KDLH 051727
TAFDLH
TAF
KDLH 051727Z 0518/0618 20012G20KT P6SM FEW200
     FM052200 10010KT P6SM VCTS BKN050CB
     FM060200 21011KT 5SM -RA VCTS OVC025CB
     FM060500 24011KT 5SM BR VCSH OVC025
     FM061300 35006KT P6SM SCT025 BKN060=



000
FTUS43 KDLH 051727
TAFBRD
TAF
KBRD 051727Z 0518/0618 21009G20KT P6SM BKN150
     FM052100 18015G27KT P6SM VCTS SCT050CB BKN070
     FM060400 17012KT 3SM -RA VCTS SCT015 OVC025CB
     FM060700 22009KT 3SM BR VCSH OVC025
     FM061400 35010KT P6SM SCT030 OVC070=



000
FTUS43 KDLH 051727
TAFINL
TAF
KINL 051727Z 0518/0618 18012KT 6SM FU VCTS SCT020 BKN070CB
     FM052000 20012G23KT 5SM -TSRA BKN040CB
      TEMPO 0520/0522 VRB20G35KT 1 1/2SM +TSRA
     FM052300 03015KT 6SM -RA VCTS SCT050 BKN070CB
     FM060200 35008KT 4SM BR VCSH OVC025
     FM060900 35004KT P6SM SCT040 OVC100
     FM061300 33007KT P6SM OVC120=



000
FTUS43 KDLH 051727
TAFDLH
TAF
KDLH 051727Z 0518/0618 20012G20KT P6SM FEW200
     FM052200 10010KT P6SM VCTS BKN050CB
     FM060200 21011KT 5SM -RA VCTS OVC025CB
     FM060500 24011KT 5SM BR VCSH OVC025
     FM061300 35006KT P6SM SCT025 BKN060=



000
FTUS43 KDLH 051616 AAB
TAFINL
TAF AMD
KINL 051616Z 0516/0612 20008KT 6SM FU SCT050 BKN150
     FM052000 20012G23KT 5SM -TSRA BKN040CB
      TEMPO 0520/0522 VRB20G35KT 1SM +TSRA
     FM052300 03015KT 6SM -RA VCTS SCT050 BKN070CB
     FM060200 35008KT 4SM BR VCSH OVC025
     FM060900 35004KT P6SM SCT040 OVC100=



000
FTUS43 KDLH 051616 AAB
TAFINL
TAF AMD
KINL 051616Z 0516/0612 20008KT 6SM FU SCT050 BKN150
     FM052000 20012G23KT 5SM -TSRA BKN040CB
      TEMPO 0520/0522 VRB20G35KT 1SM +TSRA
     FM052300 03015KT 6SM -RA VCTS SCT050 BKN070CB
     FM060200 35008KT 4SM BR VCSH OVC025
     FM060900 35004KT P6SM SCT040 OVC100=



000
FTUS43 KDLH 051425 AAA
TAFINL
TAF AMD
KINL 051425Z 0514/0612 20008KT 5SM HZ FU BKN070
     FM051600 20008KT 6SM FU SCT050 BKN150
     FM052000 20007KT 5SM -TSRA BKN040CB
     FM060200 22004KT 4SM RA BR OVC025
     FM060900 34005KT P6SM OVC100=



000
FTUS43 KDLH 051425 AAA
TAFINL
TAF AMD
KINL 051425Z 0514/0612 20008KT 5SM HZ FU BKN070
     FM051600 20008KT 6SM FU SCT050 BKN150
     FM052000 20007KT 5SM -TSRA BKN040CB
     FM060200 22004KT 4SM RA BR OVC025
     FM060900 34005KT P6SM OVC100=



000
FTUS43 KDLH 051420 AAB
TAFDLH
TAF AMD
KDLH 051420Z 0514/0612 20010KT P6SM SCT200
     FM051700 19012G20KT P6SM FEW200
     FM052100 10010KT P6SM VCTS BKN050CB
     FM060400 21011KT 5SM TSRA OVC025CB=



000
FTUS43 KDLH 051120
TAFHYR
TAF
KHYR 051120Z 0512/0612 22005KT P6SM FEW250
     FM051400 19009KT P6SM FEW250
     FM051700 19012G24KT P6SM SCT060
     FM060100 18005KT P6SM VCTS BKN100CB
     FM060800 17006KT 5SM -TSRA FEW030 BKN050CB=



000
FTUS43 KDLH 051120
TAFINL
TAF
KINL 051120Z 0512/0612 20008KT P6SM SCT050 BKN120
     FM052000 20007KT 5SM -TSRA BKN040CB
     FM060200 22004KT 4SM RA BR OVC025
     FM060900 34005KT P6SM OVC100=



000
FTUS43 KDLH 051120
TAFDLH
TAF
KDLH 051120Z 0512/0612 16004KT 5SM BR BKN040 WS018/23030KT
     FM051300 18010KT P6SM SCT200
     FM051700 19012G20KT P6SM FEW200
     FM052100 10010KT P6SM VCTS BKN050CB
     FM060400 21011KT 5SM TSRA OVC025CB=



000
FTUS43 KDLH 051120
TAFBRD
TAF
KBRD 051120Z 0512/0612 17005KT 4SM BR FEW040 SCT200
     FM051400 18010KT P6SM FEW250
     FM051700 19009G20KT P6SM VCTS BKN050CB
     FM052100 18015G27KT P6SM VCTS SCT050CB
     FM060400 17005KT 3SM -TSRA SCT015 OVC025CB=



000
FTUS43 KDLH 050932 AAA
TAFHYR
TAF AMD
KHYR 050932Z 0510/0606 22003KT 5SM HZ FEW250
     FM051400 19009KT P6SM FEW250
     FM051800 19012G22KT P6SM SCT060
     FM060100 18005KT P6SM SCT100=



000
FTUS43 KDLH 050931 AAB
TAFINL
TAF AMD
KINL 050931Z 0510/0606 17005KT P6SM -SHRA VCTS BKN050CB OVC070
      WS015/21040KT
     FM051200 18005KT P6SM VCSH SCT050 BKN250
     FM052100 20006KT 5SM -TSRA BKN040CB
     FM060200 22004KT 4SM RA BR OVC025=



000
FTUS43 KDLH 050625 AAA
TAFINL
TAF AMD
KINL 050625Z 0506/0606 17005KT P6SM -SHRA BKN050 OVC070
      WS015/21040KT
     FM051200 18005KT P6SM VCSH SCT050 BKN250
     FM051500 19006KT P6SM BKN050 PROB30 0515/0519 5SM -TSRA
      BKN040CB
     FM051900 21007KT P6SM -SHRA BKN040
     FM060200 22004KT 4SM RA BR OVC025=



000
FTUS43 KDLH 050625 AAA
TAFINL
TAF AMD
KINL 050625Z 0506/0606 17005KT P6SM -SHRA BKN050 OVC070
      WS015/21040KT
     FM051200 18005KT P6SM VCSH SCT050 BKN250
     FM051500 19006KT P6SM BKN050 PROB30 0515/0519 5SM -TSRA
      BKN040CB
     FM051900 21007KT P6SM -SHRA BKN040
     FM060200 22004KT 4SM RA BR OVC025=



000
FTUS43 KDLH 050531
TAFBRD
TAF
KBRD 050531Z 0506/0606 20004KT 5SM HZ SKC
     FM051300 17006KT P6SM VCSH FEW250
     FM051700 19009G20KT P6SM VCTS BKN050CB
     FM052000 18015G28KT P6SM VCTS SCT050CB
     FM060400 18005KT 3SM -TSRA OVC025CB=



000
FTUS43 KDLH 050531
TAFDLH
TAF
KDLH 050531Z 0506/0606 13005KT P6SM SCT050
     FM050900 16004KT 6SM HZ FU SCT250 WS015/23035KT
      TEMPO 0509/0512 4SM BR SCT002
     FM051900 19012G20KT P6SM SCT250
     FM060000 10010KT P6SM VCTS BKN050CB PROB30 0603/0606 3SM TSRA
      OVC025CB=



000
FTUS43 KDLH 050531
TAFHYR
TAF
KHYR 050531Z 0506/0606 00000KT 4SM BR OVC050
      TEMPO 0506/0510 2SM BR
     FM051400 19009KT P6SM FEW250
     FM051800 19012G22KT P6SM SCT060
     FM060100 18005KT P6SM SCT100=



000
FTUS43 KDLH 050531
TAFINL
TAF
KINL 050531Z 0506/0606 12005KT 5SM -RA FEW035 BKN070
     FM050800 17005KT P6SM -SHRA BKN050 OVC070 WS015/21040KT
     FM051200 18005KT P6SM VCSH SCT050 BKN250
     FM051500 19006KT P6SM BKN050 PROB30 0515/0519 5SM -TSRA
      BKN040CB
     FM051900 21007KT P6SM -SHRA BKN040
     FM060200 22004KT 4SM RA BR OVC025=



000
FTUS43 KDLH 042332
TAFDLH
TAF
KDLH 042332Z 0500/0524 12009KT 6SM HZ FU SKC
     FM050700 16004KT 6SM HZ FU SCT250 WS015/22035KT
      TEMPO 0509/0512 4SM BR SCT002
     FM051400 18007KT P6SM SCT250
     FM051700 19014G25KT P6SM SCT250=



000
FTUS43 KDLH 042332
TAFINL
TAF
KINL 042332Z 0500/0524 20008G15KT 6SM HZ FU SKC
     FM050200 15006KT 6SM HZ FU SCT250
     FM050800 17005KT P6SM -SHRA BKN050 OVC070 WS015/21040KT
     FM051200 18005KT P6SM VCSH SCT050 BKN250
     FM052000 21007KT P6SM VCTS BKN050CB
     FM052300 24006KT P6SM VCTS BKN050CB=



000
FTUS43 KDLH 042332
TAFBRD
TAF
KBRD 042332Z 0500/0524 18011KT 2SM HZ FU SCT025
      TEMPO 0500/0502 3SM FU BKN025
     FM050200 18004KT 6SM HZ FU FEW050
     FM050700 18004KT P6SM FEW250 WS015/22040KT
     FM051300 17006KT P6SM FEW250
     FM051700 19009G20KT P6SM SCT250
     FM052100 18015G28KT P6SM VCTS SCT050CB=



000
FTUS43 KDLH 042332
TAFHYR
TAF
KHYR 042332Z 0500/0524 20007KT 6SM HZ FU SKC
     FM050300 00000KT 6SM HZ FU SKC
     FM051400 19009KT P6SM FEW250
     FM051800 19012G22KT P6SM SCT060=



000
FTUS43 KDLH 042332
TAFDLH
TAF
KDLH 042332Z 0500/0524 12009KT 6SM HZ FU SKC
     FM050700 16004KT 6SM HZ FU SCT250 WS015/22035KT
      TEMPO 0509/0512 4SM BR SCT002
     FM051400 18007KT P6SM SCT250
     FM051700 19014G25KT P6SM SCT250=



000
FTUS43 KDLH 042332
TAFHYR
TAF
KHYR 042332Z 0500/0524 20007KT 6SM HZ FU SKC
     FM050300 00000KT 6SM HZ FU SKC
     FM051400 19009KT P6SM FEW250
     FM051800 19012G22KT P6SM SCT060=



000
FTUS43 KDLH 042332
TAFBRD
TAF
KBRD 042332Z 0500/0524 18011KT 2SM HZ FU SCT025
      TEMPO 0500/0502 3SM FU BKN025
     FM050200 18004KT 6SM HZ FU FEW050
     FM050700 18004KT P6SM FEW250 WS015/22040KT
     FM051300 17006KT P6SM FEW250
     FM051700 19009G20KT P6SM SCT250
     FM052100 18015G28KT P6SM VCTS SCT050CB=



000
FTUS43 KDLH 042332
TAFINL
TAF
KINL 042332Z 0500/0524 20008G15KT 6SM HZ FU SKC
     FM050200 15006KT 6SM HZ FU SCT250
     FM050800 17005KT P6SM -SHRA BKN050 OVC070 WS015/21040KT
     FM051200 18005KT P6SM VCSH SCT050 BKN250
     FM052000 21007KT P6SM VCTS BKN050CB
     FM052300 24006KT P6SM VCTS BKN050CB=



000
FTUS43 KDLH 042104 AAA
TAFHYR
TAF AMD
KHYR 042104Z 0421/0518 16006KT 6SM HZ FU SCT060
     FM051600 19009G16KT P6SM FEW250=



000
FTUS43 KDLH 042102 AAB
TAFDLH
TAF AMD
KDLH 042102Z 0421/0518 12009KT 6SM HZ FU SKC
     FM050700 16004KT 6SM HZ FU SCT250 WS015/22035KT
      TEMPO 0509/0512 4SM BR SCT002
     FM051400 18007KT P6SM SCT250
     FM051700 19009G16KT P6SM SCT250=



000
FTUS43 KDLH 042101 AAA
TAFINL
TAF AMD
KINL 042101Z 0421/0518 20008G15KT 6SM HZ FU SKC
     FM050200 15006KT 6SM HZ FU SCT250
     FM050700 17005KT P6SM -SHRA BKN050 OVC070 WS015/21040KT
     FM051200 18005KT P6SM VCSH SCT050 BKN250=



000
FTUS43 KDLH 042101 AAA
TAFINL
TAF AMD
KINL 042101Z 0421/0518 20008G15KT 6SM HZ FU SKC
     FM050200 15006KT 6SM HZ FU SCT250
     FM050700 17005KT P6SM -SHRA BKN050 OVC070 WS015/21040KT
     FM051200 18005KT P6SM VCSH SCT050 BKN250=



000
FTUS43 KDLH 042034 AAA
TAFBRD
TAF AMD
KBRD 042034Z 0421/0518 17008KT 2SM HZ FU BKN025 BKN040
     FM042300 18011KT 4SM HZ FU SCT050
     FM050200 18004KT P6SM FEW050
     FM050700 18004KT P6SM FEW250 WS015/22040KT
     FM051300 17006KT P6SM FEW250
     FM051700 19009G16KT P6SM SCT250=



000
FTUS43 KDLH 041726
TAFDLH
TAF
KDLH 041726Z 0418/0518 12007KT 6SM HZ FU FEW040
     FM050700 16004KT 6SM HZ FU SCT250 WS015/22035KT
      TEMPO 0509/0512 4SM BR SCT002
     FM051400 18007KT P6SM SCT250
     FM051700 19009G16KT P6SM SCT250=



000
FTUS43 KDLH 041726
TAFBRD
TAF
KBRD 041726Z 0418/0518 16006KT 4SM HZ FU FEW040
     FM042000 18011KT 6SM HZ FU SCT050
     FM050200 18004KT P6SM FEW050
     FM050700 18004KT P6SM FEW250 WS015/22040KT
     FM051300 17006KT P6SM FEW250
     FM051700 19009G16KT P6SM SCT250=



000
FTUS43 KDLH 041726
TAFINL
TAF
KINL 041726Z 0418/0518 16004KT 6SM HZ FU SKC
     FM042100 18009G16KT 6SM HZ FU SKC
     FM050200 15006KT 6SM HZ FU SCT250
     FM050700 17005KT P6SM -SHRA BKN050 OVC070 WS015/21040KT
     FM051200 18005KT P6SM VCSH SCT050 BKN250=



000
FTUS43 KDLH 041726
TAFHYR
TAF
KHYR 041726Z 0418/0518 11004KT 6SM HZ FU FEW030
     FM051600 19009G16KT P6SM FEW250=



000
FTUS43 KDLH 041540 AAC
TAFDLH
TAF AMD
KDLH 041540Z 0416/0512 10007KT 6SM HZ FU SKC
     FM050800 13004KT 6SM HZ BR SKC
      TEMPO 0509/0512 4SM BR SCT002=



000
FTUS43 KDLH 041513 AAB
TAFBRD
TAF AMD
KBRD 041513Z 0415/0512 15005KT 5SM HZ FU SKC
     FM041800 17010KT 6SM HZ FU SCT050
     FM050400 20005KT P6SM FEW050 WS020/23035KT
     FM051000 16007KT P6SM SCT030 BKN080 WS020/21040KT=



000
FTUS43 KDLH 041250 AAA
TAFBRD
TAF AMD
KBRD 041250Z 0413/0512 00000KT 2SM BR SKC
      TEMPO 0413/0414 3SM BR SCT005
     FM041400 15007KT 6SM FU FEW090
     FM041900 17010KT P6SM SCT050
     FM050400 20005KT P6SM FEW050 WS020/23035KT
     FM051000 16007KT P6SM SCT030 BKN080 WS020/21040KT=



000
FTUS43 KDLH 041250 AAA
TAFBRD
TAF AMD
KBRD 041250Z 0413/0512 00000KT 2SM BR SKC
      TEMPO 0413/0414 3SM BR SCT005
     FM041400 15007KT 6SM FU FEW090
     FM041900 17010KT P6SM SCT050
     FM050400 20005KT P6SM FEW050 WS020/23035KT
     FM051000 16007KT P6SM SCT030 BKN080 WS020/21040KT=



000
FTUS43 KDLH 041235 AAA
TAFHYR
TAF AMD
KHYR 041235Z 0413/0512 00000KT 4SM BR SKC
     FM041400 VRB03KT 6SM FU FEW070
     FM041800 15005KT P6SM SCT050
     FM050600 20007KT P6SM FEW030
      TEMPO 0509/0512 4SM BR SCT006=



000
FTUS43 KDLH 041227 AAA
TAFINL
TAF AMD
KINL 041227Z 0412/0512 13004KT P6SM SCT250
      TEMPO 0412/0413 6SM BR
     FM041700 17008KT P6SM SCT050
     FM050200 15006KT P6SM SCT040
     FM050700 18007KT P6SM SCT030 BKN120 WS020/21040KT
      TEMPO 0510/0512 4SM -SHRA BR SCT020 OVC070=



000
FTUS43 KDLH 041121
TAFBRD
TAF
KBRD 041121Z 0412/0512 00000KT 1/2SM FG OVC003
      TEMPO 0413/0414 3SM BR SCT005
     FM041400 15007KT 6SM FU FEW090
     FM041900 17010KT P6SM SCT050
     FM050400 20005KT P6SM FEW050 WS020/23035KT
     FM051000 16007KT P6SM SCT030 BKN080 WS020/21040KT=



000
FTUS43 KDLH 041121
TAFDLH
TAF
KDLH 041121Z 0412/0512 VRB04KT 6SM FU SKC
     FM041700 09009KT P6SM FEW050
     FM050400 04006KT P6SM FEW030
     FM050700 VRB03KT 6SM BR FEW012
      TEMPO 0509/0512 3SM BR=



000
FTUS43 KDLH 041121
TAFINL
TAF
KINL 041121Z 0412/0512 VRB03KT 5SM FU FEW050
     FM041700 17008KT P6SM SCT050
     FM050200 15006KT P6SM SCT040
     FM050700 18007KT P6SM SCT030 BKN120 WS020/21040KT
      TEMPO 0510/0512 4SM -SHRA BR SCT020 OVC070=



000
FTUS43 KDLH 041121
TAFHYR
TAF
KHYR 041121Z 0412/0512 00000KT 4SM BR BKN013
     FM041300 VRB03KT 6SM FU FEW070
     FM041800 15005KT P6SM SCT050
     FM050600 20007KT P6SM FEW030
      TEMPO 0509/0512 4SM BR SCT006=



000
FTUS43 KDLH 040806 AAB
TAFDLH
TAF AMD
KDLH 040806Z 0408/0506 05004KT 6SM FU SKC
      TEMPO 0411/0413 1 1/2SM BR SCT005
     FM041800 10010KT P6SM FEW050
     FM050400 14005KT P6SM FEW050=



000
FTUS43 KDLH 040706 AAA
TAFBRD
TAF AMD
KBRD 040706Z 0407/0506 VRB03KT 1 1/2SM BR FU SCT040
      TEMPO 0407/0411 1/4SM FG OVC007
     FM041600 17009KT P6SM FEW050
     FM050200 17005KT P6SM FEW050=



000
FTUS43 KDLH 040706 AAA
TAFBRD
TAF AMD
KBRD 040706Z 0407/0506 VRB03KT 1 1/2SM BR FU SCT040
      TEMPO 0407/0411 1/4SM FG OVC007
     FM041600 17009KT P6SM FEW050
     FM050200 17005KT P6SM FEW050=



000
FTUS43 KDLH 040606 AAA
TAFHYR
TAF AMD
KHYR 040606Z 0406/0506 00000KT 1/4SM FG OVC003
      TEMPO 0410/0413 1/2SM FG BKN006
     FM041300 15004KT P6SM SKC
     FM041800 16005KT P6SM SCT050=



000
FTUS43 KDLH 040527
TAFHYR
TAF
KHYR 040527Z 0406/0506 00000KT 5SM BR BKN020
     FM040800 00000KT 2SM BR BKN015
      TEMPO 0408/0412 1/2SM FG BKN006
     FM041400 15004KT P6SM SKC
     FM041800 16005KT P6SM SCT050=



000
FTUS43 KDLH 040527
TAFDLH
TAF
KDLH 040527Z 0406/0506 36004KT 6SM FU SKC
      TEMPO 0408/0412 3/4SM BR SCT005
     FM041300 08006KT 4SM BR SKC
     FM041800 10010KT P6SM FEW050
     FM050400 14005KT P6SM FEW050=



000
FTUS43 KDLH 040527
TAFINL
TAF
KINL 040527Z 0406/0506 09003KT P6SM SKC
      TEMPO 0408/0412 5SM FU
     FM041600 17008KT P6SM SCT050
     FM050200 15006KT P6SM SCT050=



000
FTUS43 KDLH 040527
TAFBRD
TAF
KBRD 040527Z 0406/0506 VRB03KT 5SM FU SKC
      TEMPO 0406/0410 1SM BR FU SKC
     FM041600 17009KT P6SM FEW050
     FM050200 17005KT P6SM FEW050=



000
FTUS43 KDLH 040220 AAB
TAFDLH
TAF AMD
KDLH 040220Z 0402/0424 35004KT 6SM FU SKC
     FM040500 36004KT 4SM FU SKC
      TEMPO 0408/0411 1SM BR FEW005
     FM041200 08007KT 4SM FU FEW050
     FM041800 10010KT P6SM FEW050=



000
FTUS43 KDLH 040137 AAA
TAFBRD
TAF AMD
KBRD 040137Z 0402/0424 VRB03KT 3SM FU FEW035
     FM041600 17008KT 6SM FU SKC
     FM041900 18009KT P6SM FEW050=



000
FTUS43 KDLH 040137 AAA
TAFBRD
TAF AMD
KBRD 040137Z 0402/0424 VRB03KT 3SM FU FEW035
     FM041600 17008KT 6SM FU SKC
     FM041900 18009KT P6SM FEW050=



000
FTUS43 KDLH 032342
TAFHYR
TAF
KHYR 032342Z 0400/0424 25005KT P6SM VCSH SCT050
      TEMPO 0400/0401 VRB10G20KT 4SM TSRA BR BKN025CB
     FM040300 00000KT 6SM HZ FEW050
      TEMPO 0408/0412 3/4SM BR SCT005
     FM041600 16005KT P6SM SCT050=



000
FTUS43 KDLH 032342
TAFINL
TAF
KINL 032342Z 0400/0424 VRB05KT P6SM FEW050
     FM040200 VRB03KT P6SM SKC
      TEMPO 0408/0412 5SM FU
     FM041600 16007KT P6SM SCT050=



000
FTUS43 KDLH 032342
TAFDLH
TAF
KDLH 032342Z 0400/0424 34006KT 4SM FU FEW070
     FM040200 34003KT 4SM FU FEW070
      TEMPO 0408/0411 1SM BR FEW005
     FM041200 08007KT 4SM FU FEW050
     FM041800 10010KT P6SM FEW050=



000
FTUS43 KDLH 032342
TAFBRD
TAF
KBRD 032342Z 0400/0424 VRB03KT 2SM FU FEW025
     FM041600 17008KT 6SM FU SKC
     FM041900 18009KT P6SM FEW050=



000
FTUS43 KDLH 032114 AAB
TAFINL
TAF AMD
KINL 032114Z 0321/0418 36008G14KT P6SM SCT050
     FM040100 VRB03KT P6SM SKC=



000
FTUS43 KDLH 032114 AAB
TAFINL
TAF AMD
KINL 032114Z 0321/0418 36008G14KT P6SM SCT050
     FM040100 VRB03KT P6SM SKC=



000
FTUS43 KDLH 032044 AAB
TAFBRD
TAF AMD
KBRD 032044Z 0321/0418 29008KT 4SM FU VCSH BKN040
      TEMPO 0321/0324 2SM FU BKN025
     FM040200 VRB05KT P6SM SCT060=



000
FTUS43 KDLH 031943 AAA
TAFHYR
TAF AMD
KHYR 031943Z 0320/0418 25010KT 6SM FU VCSH SCT030 BKN060
      TEMPO 0322/0324 4SM -TSRA BKN030CB
     FM040000 VRB04KT P6SM SCT060=



000
FTUS43 KDLH 031943 AAA
TAFHYR
TAF AMD
KHYR 031943Z 0320/0418 25010KT 6SM FU VCSH SCT030 BKN060
      TEMPO 0322/0324 4SM -TSRA BKN030CB
     FM040000 VRB04KT P6SM SCT060=



000
FTUS43 KDLH 031942 AAA
TAFBRD
TAF AMD
KBRD 031942Z 0320/0418 29008KT 3SM FU VCSH BKN035
     FM040200 VRB05KT P6SM SCT060=



000
FTUS43 KDLH 031941 AAA
TAFINL
TAF AMD
KINL 031941Z 0320/0418 34012KT 6SM FU VCSH SCT050
     FM040100 VRB03KT P6SM SKC=



000
FTUS43 KDLH 031940 AAA
TAFDLH
TAF AMD
KDLH 031940Z 0320/0418 30011KT 5SM FU VCSH SCT050
     FM040200 VRB05KT P6SM FEW070
     FM041200 08007KT P6SM FEW050=



000
FTUS43 KDLH 031940 AAA
TAFDLH
TAF AMD
KDLH 031940Z 0320/0418 30011KT 5SM FU VCSH SCT050
     FM040200 VRB05KT P6SM FEW070
     FM041200 08007KT P6SM FEW050=



000
FTUS43 KDLH 031725
TAFDLH
TAF
KDLH 031725Z 0318/0418 29008KT 6SM FU SCT060
     FM032000 31012KT 6SM FU VCSH BKN050
      TEMPO 0320/0324 4SM -RA BKN035
     FM040200 VRB05KT P6SM FEW070
     FM041200 08007KT P6SM FEW050=



000
FTUS43 KDLH 031725
TAFINL
TAF
KINL 031725Z 0318/0418 32012KT 5SM FU SCT050
     FM040100 VRB03KT P6SM SKC=



000
FTUS43 KDLH 031725
TAFBRD
TAF
KBRD 031725Z 0318/0418 29008KT 4SM FU SCT035
     FM032200 32012KT 5SM FU VCSH BKN040
      TEMPO 0322/0402 6SM RA BKN035
     FM040200 VRB05KT P6SM SCT060=



000
FTUS43 KDLH 031725
TAFHYR
TAF
KHYR 031725Z 0318/0418 25007KT P6SM SCT040
     FM032100 27010KT 6SM FU VCSH SCT030 BKN050
      TEMPO 0322/0324 4SM -TSRA BKN030CB
     FM040000 VRB04KT P6SM SCT060=



000
FTUS43 KDLH 031725
TAFHYR
TAF
KHYR 031725Z 0318/0418 25007KT P6SM SCT040
     FM032100 27010KT 6SM FU VCSH SCT030 BKN050
      TEMPO 0322/0324 4SM -TSRA BKN030CB
     FM040000 VRB04KT P6SM SCT060=



000
FTUS43 KDLH 031725
TAFDLH
TAF
KDLH 031725Z 0318/0418 29008KT 6SM FU SCT060
     FM032000 31012KT 6SM FU VCSH BKN050
      TEMPO 0320/0324 4SM -RA BKN035
     FM040200 VRB05KT P6SM FEW070
     FM041200 08007KT P6SM FEW050=



000
FTUS43 KDLH 031725
TAFINL
TAF
KINL 031725Z 0318/0418 32012KT 5SM FU SCT050
     FM040100 VRB03KT P6SM SKC=



000
FTUS43 KDLH 031725
TAFBRD
TAF
KBRD 031725Z 0318/0418 29008KT 4SM FU SCT035
     FM032200 32012KT 5SM FU VCSH BKN040
      TEMPO 0322/0402 6SM RA BKN035
     FM040200 VRB05KT P6SM SCT060=



000
FTUS43 KDLH 031521 AAA
TAFBRD
TAF AMD
KBRD 031521Z 0315/0412 29008KT P6SM FEW015 SCT040
     FM031800 30010KT P6SM SCT050
     FM032200 32012KT P6SM VCSH BKN050
      TEMPO 0322/0402 6SM RA BKN035
     FM040200 VRB05KT P6SM SCT060=



000
FTUS43 KDLH 031518 AAC
TAFDLH
TAF AMD
KDLH 031518Z 0315/0412 29008KT P6SM SCT080
     FM032000 31012KT P6SM VCSH BKN060
      TEMPO 0320/0324 6SM -RA BKN035
     FM040200 VRB05KT P6SM SCT070=



000
FTUS43 KDLH 031511 AAC
TAFINL
TAF AMD
KINL 031511Z 0315/0412 30008KT 4SM FU SCT070
     FM031800 33010KT P6SM SCT080
     FM040100 VRB03KT P6SM SKC=



000
FTUS43 KDLH 031244 AAB
TAFINL
TAF AMD
KINL 031244Z 0313/0412 26004KT P6SM VCSH SCT005 BKN045
      TEMPO 0313/0315 5SM -RA BKN005
     FM031600 32007KT P6SM SCT035 BKN070
     FM040100 35003KT P6SM FEW080=



000
FTUS43 KDLH 031244 AAB
TAFINL
TAF AMD
KINL 031244Z 0313/0412 26004KT P6SM VCSH SCT005 BKN045
      TEMPO 0313/0315 5SM -RA BKN005
     FM031600 32007KT P6SM SCT035 BKN070
     FM040100 35003KT P6SM FEW080=



000
FTUS43 KDLH 031228 AAA
TAFINL
TAF AMD
KINL 031228Z 0312/0412 26004KT P6SM VCSH BKN012
      TEMPO 0312/0314 5SM -RA BKN005
     FM031600 32007KT P6SM SCT035 BKN070
     FM040100 35003KT P6SM FEW080=



000
FTUS43 KDLH 031228 AAA
TAFINL
TAF AMD
KINL 031228Z 0312/0412 26004KT P6SM VCSH BKN012
      TEMPO 0312/0314 5SM -RA BKN005
     FM031600 32007KT P6SM SCT035 BKN070
     FM040100 35003KT P6SM FEW080=



000
FTUS43 KDLH 031151 AAA
TAFDLH
TAF AMD
KDLH 031151Z 0312/0412 28009KT P6SM VCSH SCT080 BKN100
      TEMPO 0312/0314 5SM -SHRA BR BKN040
     FM031500 26010KT P6SM BKN050
     FM031900 27009KT P6SM VCSH BKN050
      TEMPO 0319/0323 6SM -TSRA BKN035CB
     FM032300 31009KT P6SM VCSH BKN060
     FM040300 35005KT P6SM SCT070=



000
FTUS43 KDLH 031127
TAFINL
TAF
KINL 031127Z 0312/0412 26004KT P6SM VCSH BKN012
      TEMPO 0312/0314 6SM -RA BKN007
     FM031600 32007KT P6SM SCT035 BKN070
     FM040100 35003KT P6SM FEW080=



000
FTUS43 KDLH 031127
TAFDLH
TAF
KDLH 031127Z 0312/0412 28009KT P6SM VCSH SCT080 BKN100
     FM031500 26010KT P6SM BKN050
     FM031900 27009KT P6SM VCSH BKN050
      TEMPO 0319/0323 6SM -TSRA BKN035CB
     FM032300 31009KT P6SM VCSH BKN060
     FM040300 35005KT P6SM SCT070=



000
FTUS43 KDLH 031127
TAFHYR
TAF
KHYR 031127Z 0312/0412 00000KT P6SM SCT080
     FM031600 25007KT P6SM SCT050
     FM032300 25007KT P6SM VCTS BKN060CB
      TEMPO 0400/0403 6SM TSRA BR BKN035CB
     FM040500 29003KT P6SM SCT060=



000
FTUS43 KDLH 031127
TAFBRD
TAF
KBRD 031127Z 0312/0412 18004KT P6SM SCT050
     FM032000 28008KT P6SM VCSH BKN050
      TEMPO 0320/0323 6SM TSRA BR BKN035CB
     FM040000 35005KT P6SM BKN060=



000
FTUS43 KDLH 031028 AAA
TAFINL
TAF AMD
KINL 031028Z 0310/0406 26004KT P6SM VCSH BKN050
      TEMPO 0310/0313 6SM -RA BKN010
     FM031500 32010KT P6SM SCT050
     FM032300 35005KT P6SM FEW060=



000
FTUS43 KDLH 030812 RRA
TAFBRD
TAF
KBRD 030812Z 0308/0406 VRB03KT P6SM SCT080
     FM031700 27011KT P6SM BKN070
      TEMPO 0318/0321 6SM TSRA BR BKN035CB
     FM032200 30008KT P6SM BKN060
     FM040200 VRB03KT P6SM SCT060=



000
FTUS43 KDLH 030812 RRA
TAFDLH
TAF
KDLH 030812Z 0308/0406 24005KT P6SM BKN080
     FM031400 25010KT P6SM BKN050
     FM031700 27012G18KT P6SM VCSH BKN050
      TEMPO 0319/0322 6SM -TSRA BKN035CB
     FM032200 30008KT P6SM BKN070
     FM040200 34005KT P6SM SCT070=



000
FTUS43 KDLH 030812 RRA
TAFINL
TAF
KINL 030812Z 0308/0406 24005KT P6SM VCSH BKN050
     FM031000 25004KT P6SM BKN070
     FM031500 32010KT P6SM SCT050
     FM032300 35005KT P6SM FEW060=



000
FTUS43 KDLH 030812 RRA
TAFHYR
TAF
KHYR 030812Z 0308/0406 00000KT P6SM FEW050
     FM031500 23006KT P6SM SCT050
     FM031800 23008KT P6SM BKN060
      TEMPO 0322/0401 6SM TSRA BR BKN035CB
     FM040300 00000KT P6SM SCT060=



    US Dept of Commerce
    National Oceanic and Atmospheric Administration
    National Weather Service
    1325 East West Highway
    Silver Spring, MD 20910
    Page Author: NWS Internet Services Team
Disclaimer
Information Quality
Credits
Glossary
Privacy Policy
Freedom of Information Act (FOIA)
About Us
Career Opportunities